createdAt,value
2023-01-29T00:00:41.024Z,2.37
2023-01-29T00:03:43.834Z,2.44
2023-01-29T00:06:46.395Z,2.46
2023-01-29T00:09:49.224Z,2.41
2023-01-29T00:12:52.740Z,2.37
2023-01-29T00:15:59.313Z,2.35
2023-01-29T00:19:02.645Z,2.37
2023-01-29T00:22:05.446Z,2.37
2023-01-29T00:25:08.887Z,2.33
2023-01-29T00:28:12.349Z,2.35
2023-01-29T00:31:17.858Z,2.36
2023-01-29T00:34:21.513Z,2.32
2023-01-29T00:37:24.290Z,2.22
2023-01-29T00:40:27.215Z,2.28
2023-01-29T00:43:48.545Z,2.24
2023-01-29T00:46:51.454Z,2.09
2023-01-29T00:49:54.252Z,1.99
2023-01-29T00:52:57.633Z,1.98
2023-01-29T00:56:00.228Z,2.01
2023-01-29T00:59:04.287Z,1.95
2023-01-29T01:02:26.143Z,1.93
2023-01-29T01:05:29.415Z,1.83
2023-01-29T01:08:51.904Z,1.76
2023-01-29T01:11:55.867Z,1.71
2023-01-29T01:14:58.460Z,1.64
2023-01-29T01:18:02.390Z,1.58
2023-01-29T01:21:06.506Z,1.54
2023-01-29T01:24:09.441Z,1.43
2023-01-29T01:27:12.696Z,1.39
2023-01-29T01:30:16.726Z,1.25
2023-01-29T01:33:20.299Z,1.29
2023-01-29T01:36:23.280Z,1.23
2023-01-29T01:39:26.276Z,1.16
2023-01-29T01:42:32.541Z,1.17
2023-01-29T01:45:36.949Z,1.10
2023-01-29T01:48:40.123Z,1.07
2023-01-29T01:51:46.489Z,1.04
2023-01-29T01:54:49.844Z,1.02
2023-01-29T01:57:55.965Z,1.05
2023-01-29T02:00:59.084Z,1.00
2023-01-29T02:04:25.185Z,0.98
2023-01-29T02:07:46.414Z,0.83
2023-01-29T02:10:49.912Z,0.94
2023-01-29T02:13:53.748Z,0.80
2023-01-29T02:17:01.677Z,0.79
2023-01-29T02:20:24.540Z,0.82
2023-01-29T02:23:40.836Z,0.86
2023-01-29T02:27:04.786Z,0.79
2023-01-29T02:30:37.579Z,0.78
2023-01-29T02:33:55.493Z,0.77
2023-01-29T02:37:09.995Z,0.77
2023-01-29T02:40:34.601Z,0.77
2023-01-29T02:43:50.161Z,0.65
2023-01-29T02:47:09.732Z,0.56
2023-01-29T02:50:19.561Z,0.58
2023-01-29T02:53:32.749Z,0.58
2023-01-29T02:56:47.417Z,0.63
2023-01-29T03:00:10.426Z,0.57
2023-01-29T03:03:20.631Z,0.51
2023-01-29T03:06:31.977Z,0.50
2023-01-29T03:09:37.763Z,0.49
2023-01-29T03:12:44.682Z,0.43
2023-01-29T03:15:54.994Z,0.34
2023-01-29T03:19:08.705Z,0.28
2023-01-29T03:22:11.698Z,0.26
2023-01-29T03:25:34.279Z,0.24
2023-01-29T03:28:56.910Z,0.30
2023-01-29T03:32:09.290Z,0.20
2023-01-29T03:35:14.535Z,0.18
2023-01-29T03:38:17.940Z,0.12
2023-01-29T03:41:33.573Z,0.09
2023-01-29T03:44:49.049Z,0.10
2023-01-29T03:48:02.062Z,0.18
2023-01-29T03:51:53.218Z,0.11
2023-01-29T03:55:07.006Z,0.27
2023-01-29T03:58:12.936Z,0.27
2023-01-29T04:01:19.703Z,0.28
2023-01-29T04:04:28.932Z,0.31
2023-01-29T04:07:33.520Z,0.36
2023-01-29T04:10:39.219Z,0.45
2023-01-29T04:13:42.181Z,0.53
2023-01-29T04:16:48.976Z,0.54
2023-01-29T04:19:52.072Z,0.51
2023-01-29T04:22:55.019Z,0.60
2023-01-29T04:26:21.719Z,0.60
2023-01-29T04:29:33.725Z,0.67
2023-01-29T04:32:58.729Z,0.64
2023-01-29T04:36:23.196Z,0.66
2023-01-29T04:39:38.197Z,0.71
2023-01-29T04:42:43.998Z,0.72
2023-01-29T04:46:13.207Z,0.70
2023-01-29T04:49:48.605Z,0.67
2023-01-29T04:53:14.085Z,0.76
2023-01-29T04:56:30.310Z,0.79
2023-01-29T04:59:39.250Z,0.84
2023-01-29T05:02:43.662Z,0.84
2023-01-29T05:05:48.345Z,0.82
2023-01-29T05:08:51.802Z,0.88
2023-01-29T05:11:55.214Z,0.82
2023-01-29T05:15:01.448Z,0.83
2023-01-29T05:18:08.874Z,0.85
2023-01-29T05:21:11.891Z,0.90
2023-01-29T05:24:23.243Z,0.86
2023-01-29T05:27:53.159Z,0.87
2023-01-29T05:30:57.189Z,0.94
2023-01-29T05:34:00.159Z,0.94
2023-01-29T05:37:02.886Z,1.02
2023-01-29T05:40:08.852Z,1.04
2023-01-29T05:43:29.664Z,1.10
2023-01-29T05:46:32.454Z,1.16
2023-01-29T05:49:36.363Z,1.23
2023-01-29T05:52:40.807Z,1.15
2023-01-29T05:55:49.250Z,1.13
2023-01-29T05:58:52.381Z,1.14
2023-01-29T06:01:54.939Z,1.14
2023-01-29T06:04:57.879Z,1.14
2023-01-29T06:08:00.395Z,1.21
2023-01-29T06:11:03.520Z,1.29
2023-01-29T06:14:06.528Z,1.30
2023-01-29T06:17:09.337Z,1.33
2023-01-29T06:20:12.609Z,1.32
2023-01-29T06:23:15.610Z,1.35
2023-01-29T06:26:18.239Z,1.36
2023-01-29T06:29:21.186Z,1.33
2023-01-29T06:32:24.063Z,1.36
2023-01-29T06:35:27.224Z,1.31
2023-01-29T06:38:31.005Z,1.24
2023-01-29T06:41:34.672Z,1.32
2023-01-29T06:44:37.123Z,1.23
2023-01-29T06:47:40.052Z,1.27
2023-01-29T06:50:43.146Z,1.34
2023-01-29T06:53:46.715Z,1.18
2023-01-29T06:56:49.441Z,1.20
2023-01-29T06:59:52.594Z,1.10
2023-01-29T07:02:55.211Z,1.15
2023-01-29T07:05:58.241Z,1.18
2023-01-29T07:09:01.027Z,1.09
2023-01-29T07:12:04.804Z,1.05
2023-01-29T07:15:07.940Z,1.22
2023-01-29T07:18:13.558Z,1.22
2023-01-29T07:21:16.595Z,1.22
2023-01-29T07:24:19.608Z,1.26
2023-01-29T07:27:22.128Z,1.29
2023-01-29T07:30:25.282Z,1.39
2023-01-29T07:33:27.968Z,1.41
2023-01-29T07:36:31.035Z,1.46
2023-01-29T07:39:33.587Z,1.37
2023-01-29T07:42:40.066Z,1.36
2023-01-29T07:45:42.706Z,1.40
2023-01-29T07:48:45.603Z,1.54
2023-01-29T07:51:48.294Z,1.44
2023-01-29T07:54:51.143Z,1.53
2023-01-29T07:57:57.554Z,1.54
2023-01-29T08:01:00.586Z,1.57
2023-01-29T08:04:03.562Z,1.54
2023-01-29T08:07:06.149Z,1.62
2023-01-29T08:10:09.897Z,1.65
2023-01-29T08:13:18.743Z,1.65
2023-01-29T08:16:21.609Z,1.61
2023-01-29T08:19:24.379Z,1.65
2023-01-29T08:22:27.480Z,1.76
2023-01-29T08:25:30.606Z,1.74
2023-01-29T08:28:33.580Z,1.76
2023-01-29T08:31:37.131Z,1.74
2023-01-29T08:34:40.062Z,1.72
2023-01-29T08:37:42.531Z,1.63
2023-01-29T08:40:45.551Z,1.69
2023-01-29T08:43:48.072Z,1.55
2023-01-29T08:46:53.698Z,1.56
2023-01-29T08:49:56.445Z,1.67
2023-01-29T08:53:00.562Z,1.81
2023-01-29T08:56:03.292Z,1.70
2023-01-29T08:59:06.337Z,1.74
2023-01-29T09:02:10.859Z,1.63
2023-01-29T09:05:13.855Z,1.63
2023-01-29T09:08:16.581Z,1.61
2023-01-29T09:11:19.952Z,1.74
2023-01-29T09:14:22.760Z,1.61
2023-01-29T09:17:25.794Z,1.59
2023-01-29T09:20:28.600Z,1.52
2023-01-29T09:23:31.818Z,1.71
2023-01-29T09:26:34.767Z,1.69
2023-01-29T09:29:38.221Z,1.83
2023-01-29T09:32:56.197Z,1.90
2023-01-29T09:36:03.832Z,1.81
2023-01-29T09:39:06.443Z,1.89
2023-01-29T09:42:16.596Z,1.85
2023-01-29T09:45:24.858Z,1.58
2023-01-29T09:48:30.353Z,1.73
2023-01-29T09:51:43.799Z,1.87
2023-01-29T09:54:56.117Z,1.85
2023-01-29T09:58:01.209Z,1.81
2023-01-29T10:01:07.846Z,1.83
2023-01-29T10:04:23.225Z,1.75
2023-01-29T10:07:37.848Z,1.69
2023-01-29T10:11:01.079Z,1.77
2023-01-29T10:14:41.436Z,1.83
2023-01-29T10:17:55.309Z,1.85
2023-01-29T10:21:04.689Z,2.00
2023-01-29T10:24:17.233Z,1.90
2023-01-29T10:27:20.118Z,1.97
2023-01-29T10:30:36.966Z,2.00
2023-01-29T10:34:01.426Z,1.95
2023-01-29T10:37:36.974Z,2.02
2023-01-29T10:40:47.100Z,1.89
2023-01-29T10:44:08.916Z,1.85
2023-01-29T10:47:23.623Z,2.08
2023-01-29T10:50:50.573Z,1.96
2023-01-29T10:54:16.235Z,2.00
2023-01-29T10:57:43.997Z,2.01
2023-01-29T11:00:46.835Z,1.88
2023-01-29T11:04:02.335Z,1.96
2023-01-29T11:07:04.833Z,1.95
2023-01-29T11:10:11.633Z,1.86
2023-01-29T11:13:15.583Z,1.87
2023-01-29T11:16:18.435Z,1.92
2023-01-29T11:19:40.536Z,2.06
2023-01-29T11:22:53.957Z,1.91
2023-01-29T11:25:57.897Z,1.78
2023-01-29T11:29:00.968Z,1.80
2023-01-29T11:32:25.588Z,1.86
2023-01-29T11:35:30.267Z,1.86
2023-01-29T11:38:33.048Z,1.84
2023-01-29T11:41:49.391Z,1.68
2023-01-29T11:44:51.981Z,1.94
2023-01-29T11:47:56.544Z,1.87
2023-01-29T11:51:05.537Z,1.77
2023-01-29T11:54:15.319Z,1.87
2023-01-29T11:57:36.483Z,1.90
2023-01-29T12:00:40.527Z,1.83
2023-01-29T12:03:48.507Z,1.79
2023-01-29T12:06:53.850Z,1.98
2023-01-29T12:09:58.730Z,1.88
2023-01-29T12:13:11.980Z,1.86
2023-01-29T12:16:39.392Z,1.88
2023-01-29T12:19:49.169Z,1.72
2023-01-29T12:22:58.884Z,1.89
2023-01-29T12:26:23.153Z,1.79
2023-01-29T12:29:50.001Z,1.85
2023-01-29T12:33:24.756Z,1.82
2023-01-29T12:37:10.995Z,1.75
2023-01-29T12:40:16.390Z,1.72
2023-01-29T12:43:29.023Z,1.83
2023-01-29T12:46:39.458Z,1.85
2023-01-29T12:49:43.013Z,1.77
2023-01-29T12:52:53.162Z,1.86
2023-01-29T12:56:00.295Z,1.88
2023-01-29T12:59:10.328Z,1.78
2023-01-29T13:02:32.027Z,1.68
2023-01-29T13:06:04.162Z,1.73
2023-01-29T13:09:12.006Z,1.79
2023-01-29T13:12:17.514Z,1.77
2023-01-29T13:15:30.506Z,1.91
2023-01-29T13:18:44.909Z,1.86
2023-01-29T13:21:48.312Z,1.73
2023-01-29T13:25:03.657Z,1.93
2023-01-29T13:28:17.274Z,1.88
2023-01-29T13:31:27.918Z,1.75
2023-01-29T13:34:36.893Z,1.87
2023-01-29T13:37:47.585Z,1.88
2023-01-29T13:40:50.981Z,1.77
2023-01-29T13:43:53.792Z,1.76
2023-01-29T13:47:02.383Z,1.85
2023-01-29T13:50:11.207Z,1.79
2023-01-29T13:53:23.623Z,1.68
2023-01-29T13:56:35.457Z,1.83
2023-01-29T13:59:53.612Z,1.72
2023-01-29T14:03:08.531Z,1.61
2023-01-29T14:06:11.639Z,1.68
2023-01-29T14:09:39.369Z,1.73
2023-01-29T14:12:43.613Z,1.68
2023-01-29T14:16:06.678Z,1.67
2023-01-29T14:19:18.212Z,1.38
2023-01-29T14:22:26.709Z,1.44
2023-01-29T14:25:38.012Z,1.35
2023-01-29T14:28:42.868Z,1.49
2023-01-29T14:32:09.595Z,1.55
2023-01-29T14:35:27.428Z,1.25
2023-01-29T14:38:33.139Z,1.35
2023-01-29T14:41:36.349Z,1.25
2023-01-29T14:44:45.742Z,1.18
2023-01-29T14:47:48.459Z,1.12
2023-01-29T14:50:52.433Z,1.11
2023-01-29T14:54:04.241Z,0.82
2023-01-29T14:57:11.743Z,0.99
2023-01-29T15:00:22.924Z,1.06
2023-01-29T15:03:44.375Z,1.13
2023-01-29T15:06:56.253Z,0.99
2023-01-29T15:10:22.687Z,1.03
2023-01-29T15:13:50.860Z,0.84
2023-01-29T15:17:17.169Z,1.06
2023-01-29T15:20:34.704Z,0.96
2023-01-29T15:23:37.850Z,0.90
2023-01-29T15:26:42.836Z,1.04
2023-01-29T15:29:56.385Z,1.03
2023-01-29T15:32:59.720Z,0.80
2023-01-29T15:36:07.812Z,0.91
2023-01-29T15:39:13.562Z,0.66
2023-01-29T15:42:21.748Z,0.53
2023-01-29T15:45:28.107Z,0.48
2023-01-29T15:48:41.027Z,0.55
2023-01-29T15:51:43.783Z,0.49
2023-01-29T15:54:46.868Z,0.37
2023-01-29T15:57:50.006Z,0.13
2023-01-29T16:00:55.712Z,0.30
2023-01-29T16:04:02.521Z,0.11
2023-01-29T16:07:05.330Z,0.01
2023-01-29T16:10:16.348Z,-0.03
2023-01-29T16:13:27.641Z,0.07
2023-01-29T16:16:30.701Z,0.07
2023-01-29T16:19:33.715Z,-0.08
2023-01-29T16:22:37.528Z,-0.07
2023-01-29T16:25:40.441Z,-0.06
2023-01-29T16:28:44.584Z,-0.03
2023-01-29T16:31:49.168Z,-0.01
2023-01-29T16:34:57.180Z,-0.06
2023-01-29T16:38:03.935Z,-0.14
2023-01-29T16:41:26.610Z,-0.12
2023-01-29T16:44:35.635Z,-0.14
2023-01-29T16:47:41.520Z,-0.13
2023-01-29T16:50:54.609Z,-0.09
2023-01-29T16:53:59.857Z,-0.13
2023-01-29T16:57:03.396Z,-0.12
2023-01-29T17:00:09.156Z,-0.18
2023-01-29T17:03:12.300Z,-0.17
2023-01-29T17:06:25.751Z,-0.23
2023-01-29T17:09:34.579Z,-0.23
2023-01-29T17:12:38.998Z,-0.27
2023-01-29T17:15:44.729Z,-0.24
2023-01-29T17:18:47.654Z,-0.35
2023-01-29T17:21:50.473Z,-0.40
2023-01-29T17:24:53.668Z,-0.50
2023-01-29T17:27:56.536Z,-0.58
2023-01-29T17:31:06.375Z,-0.48
2023-01-29T17:34:12.770Z,-0.54
2023-01-29T17:37:16.656Z,-0.57
2023-01-29T17:40:34.514Z,-0.51
2023-01-29T17:43:37.746Z,-0.45
2023-01-29T17:46:40.295Z,-0.49
2023-01-29T17:49:43.595Z,-0.48
2023-01-29T17:52:46.856Z,-0.46
2023-01-29T17:55:50.554Z,-0.46
2023-01-29T17:58:53.611Z,-0.52
2023-01-29T18:01:57.090Z,-0.50
2023-01-29T18:05:00.490Z,-0.53
2023-01-29T18:08:04.594Z,-0.51
2023-01-29T18:11:11.533Z,-0.56
2023-01-29T18:14:14.766Z,-0.60
2023-01-29T18:17:22.322Z,-0.71
2023-01-29T18:20:28.125Z,-0.69
2023-01-29T18:23:32.332Z,-0.82
2023-01-29T18:26:36.116Z,-0.70
2023-01-29T18:29:39.014Z,-0.67
2023-01-29T18:32:41.850Z,-0.80
2023-01-29T18:35:45.291Z,-0.86
2023-01-29T18:38:48.108Z,-1.07
2023-01-29T18:41:51.472Z,-1.08
2023-01-29T18:44:54.179Z,-0.99
2023-01-29T18:47:57.717Z,-1.02
2023-01-29T18:51:00.831Z,-1.21
2023-01-29T18:54:04.203Z,-1.15
2023-01-29T18:57:14.092Z,-1.13
2023-01-29T19:00:29.852Z,-1.19
2023-01-29T19:03:32.810Z,-1.12
2023-01-29T19:06:37.193Z,-1.35
2023-01-29T19:09:42.115Z,-1.34
2023-01-29T19:12:47.727Z,-1.26
2023-01-29T19:15:50.504Z,-1.38
2023-01-29T19:18:56.068Z,-1.24
2023-01-29T19:21:59.576Z,-1.33
2023-01-29T19:25:02.662Z,-1.42
2023-01-29T19:28:07.276Z,-1.32
2023-01-29T19:31:10.172Z,-1.33
2023-01-29T19:34:13.283Z,-1.25
2023-01-29T19:37:16.864Z,-1.18
2023-01-29T19:40:19.721Z,-1.15
2023-01-29T19:43:22.660Z,-1.31
2023-01-29T19:46:25.165Z,-1.34
2023-01-29T19:49:28.392Z,-1.32
2023-01-29T19:52:51.067Z,-1.38
2023-01-29T19:56:03.156Z,-1.33
2023-01-29T19:59:09.296Z,-1.43
2023-01-29T20:02:12.511Z,-1.40
2023-01-29T20:05:18.413Z,-1.42
2023-01-29T20:08:22.348Z,-1.46
2023-01-29T20:11:25.436Z,-1.53
2023-01-29T20:14:28.216Z,-1.51
2023-01-29T20:17:31.333Z,-1.54
2023-01-29T20:20:33.913Z,-1.49
2023-01-29T20:23:38.733Z,-1.59
2023-01-29T20:26:41.885Z,-1.50
2023-01-29T20:29:46.559Z,-1.62
2023-01-29T20:32:49.083Z,-1.57
2023-01-29T20:35:59.607Z,-1.61
2023-01-29T20:39:02.261Z,-1.54
2023-01-29T20:42:05.494Z,-1.70
2023-01-29T20:45:12.307Z,-1.79
2023-01-29T20:48:15.476Z,-1.72
2023-01-29T20:51:18.647Z,-1.84
2023-01-29T20:54:21.700Z,-1.73
2023-01-29T20:57:24.933Z,-1.71
2023-01-29T21:00:28.012Z,-1.78
2023-01-29T21:03:30.906Z,-1.79
2023-01-29T21:06:34.068Z,-1.74
2023-01-29T21:09:36.863Z,-1.72
2023-01-29T21:12:39.656Z,-1.79
2023-01-29T21:15:42.846Z,-1.66
2023-01-29T21:18:46.195Z,-1.77
2023-01-29T21:21:48.736Z,-1.80
2023-01-29T21:24:51.611Z,-1.76
2023-01-29T21:27:54.392Z,-1.82
2023-01-29T21:31:04.223Z,-1.90
2023-01-29T21:34:07.941Z,-1.88
2023-01-29T21:37:10.878Z,-2.06
2023-01-29T21:40:13.528Z,-2.01
2023-01-29T21:43:16.856Z,-1.95
2023-01-29T21:46:20.800Z,-1.97
2023-01-29T21:49:23.892Z,-1.95
2023-01-29T21:52:26.470Z,-1.95
2023-01-29T21:55:29.396Z,-2.12
2023-01-29T21:58:32.236Z,-2.02
2023-01-29T22:01:37.549Z,-2.00
2023-01-29T22:04:42.451Z,-2.03
2023-01-29T22:07:44.971Z,-1.99
2023-01-29T22:10:48.233Z,-1.94
2023-01-29T22:13:50.871Z,-2.04
2023-01-29T22:16:53.682Z,-2.00
2023-01-29T22:19:56.309Z,-2.04
2023-01-29T22:23:00.625Z,-1.99
2023-01-29T22:26:04.498Z,-2.08
2023-01-29T22:29:07.331Z,-2.03
2023-01-29T22:32:10.530Z,-2.02
2023-01-29T22:35:13.494Z,-1.95
2023-01-29T22:38:16.019Z,-1.94
2023-01-29T22:41:18.864Z,-1.91
2023-01-29T22:44:21.692Z,-1.85
2023-01-29T22:47:24.506Z,-1.91
2023-01-29T22:50:27.073Z,-1.90
2023-01-29T22:53:29.848Z,-1.87
2023-01-29T22:56:32.325Z,-1.85
2023-01-29T22:59:35.223Z,-1.99
2023-01-29T23:02:38.019Z,-1.92
2023-01-29T23:05:40.890Z,-1.89
2023-01-29T23:08:44.332Z,-1.83
2023-01-29T23:11:47.430Z,-1.84
2023-01-29T23:14:49.956Z,-1.78
2023-01-29T23:17:52.800Z,-1.81
2023-01-29T23:20:58.378Z,-1.80
2023-01-29T23:24:01.499Z,-1.83
2023-01-29T23:27:16.057Z,-1.84
2023-01-29T23:30:19.385Z,-1.95
2023-01-29T23:33:22.469Z,-2.06
2023-01-29T23:36:25.416Z,-1.94
2023-01-29T23:39:27.906Z,-1.95
2023-01-29T23:42:30.825Z,-2.06
2023-01-29T23:45:33.530Z,-2.06
2023-01-29T23:48:36.633Z,-1.99
2023-01-29T23:51:39.190Z,-1.98
2023-01-29T23:54:42.253Z,-2.00
2023-01-29T23:57:44.753Z,-1.98
